Time;durP1;ratioP1;P1;durP2;ratioP2;P2;SDS_P1;SDS_P2;PMS_P1;PMS_P2;Temp;Humidity;BMP_temperature;BMP_pressure;BME280_temperature;BME280_humidity;BME280_pressure;Samples;Min_cycle;Max_cycle;Signal;HPM_P1;HPM_P2
2024/01/16 00:00:34;;;;;;;5.80;1.00;;;;;;;;;;5029715;28;20582;-68
2024/01/16 00:03:00;;;;;;;7.78;1.33;;;;;;;;;;5029932;28;20044;-71
2024/01/16 00:05:26;;;;;;;10.13;2.63;;;;;;;;;;5026631;28;20104;-71
2024/01/16 00:07:52;;;;;;;7.10;1.38;;;;;;;;;;5029677;28;20493;-71
2024/01/16 00:10:18;;;;;;;5.53;1.30;;;26.60;1.00;;;;;;5030104;28;20037;-69
2024/01/16 00:12:44;;;;;;;8.25;1.80;;;;;;;;;;5031129;28;20041;-71
2024/01/16 00:15:10;;;;;;;6.28;1.42;;;;;;;;;;5029175;28;20044;-71
2024/01/16 00:17:36;;;;;;;8.45;1.00;;;26.60;1.00;;;;;;5029899;28;20162;-71
2024/01/16 00:20:03;;;;;;;6.82;1.00;;;;;;;;;;5029679;28;20509;-71
2024/01/16 00:22:29;;;;;;;5.38;1.13;;;;;;;;;;5030069;28;20049;-73
2024/01/16 00:24:56;;;;;;;4.85;1.08;;;;;;;;;;5012923;28;20033;-71
2024/01/16 00:27:22;;;;;;;7.38;1.42;;;;;;;;;;5029778;28;20045;-73
2024/01/16 00:29:48;;;;;;;6.70;1.10;;;;;;;;;;5029437;28;20160;-73
2024/01/16 00:32:16;;;;;;;8.98;1.25;;;;;;;;;;5029753;28;20080;-71
2024/01/16 00:34:43;;;;;;;6.32;1.08;;;;;;;;;;5029005;28;20091;-71
2024/01/16 00:37:09;;;;;;;6.38;1.45;;;;;;;;;;5029821;28;20045;-71
2024/01/16 00:39:35;;;;;;;7.03;1.10;;;;;;;;;;5033586;28;20555;-71
2024/01/16 00:42:02;;;;;;;8.57;1.60;;;;;;;;;;5033462;28;20081;-71
2024/01/16 00:44:28;;;;;;;5.22;1.08;;;26.50;1.00;;;;;;5014562;28;20038;-71
2024/01/16 00:46:53;;;;;;;8.52;1.25;;;26.30;1.00;;;;;;5032633;28;20033;-71
2024/01/16 00:49:19;;;;;;;3.78;0.93;;;26.60;1.00;;;;;;5017133;28;20132;-71
2024/01/16 00:51:45;;;;;;;8.73;1.65;;;;;;;;;;5033135;28;20033;-71
2024/01/16 00:54:11;;;;;;;8.48;1.25;;;;;;;;;;5033193;28;20037;-72
2024/01/16 00:56:37;;;;;;;4.07;0.85;;;;;;;;;;5015730;28;20124;-71
2024/01/16 00:59:03;;;;;;;9.80;1.00;;;;;;;;;;5032992;28;20453;-71
2024/01/16 01:01:29;;;;;;;11.52;1.48;;;;;;;;;;5032936;28;20037;-71
2024/01/16 01:03:55;;;;;;;12.65;2.42;;;;;;;;;;5033293;28;20033;-72
2024/01/16 01:06:21;;;;;;;4.15;0.80;;;;;;;;;;5032339;28;20498;-72
2024/01/16 01:08:47;;;;;;;6.22;0.95;;;;;;;;;;5031556;28;20033;-68
2024/01/16 01:11:13;;;;;;;7.10;0.98;;;;;;;;;;5016591;28;20075;-71
2024/01/16 01:13:39;;;;;;;8.15;2.10;;;;;;;;;;5034048;28;20409;-69
2024/01/16 01:16:06;;;;;;;5.90;0.80;;;26.30;1.00;;;;;;5032184;28;20033;-71
2024/01/16 01:18:32;;;;;;;5.38;1.58;;;;;;;;;;5016050;28;20160;-71
2024/01/16 01:20:58;;;;;;;2.65;1.10;;;;;;;;;;5032990;28;20073;-71
2024/01/16 01:23:23;;;;;;;5.72;1.10;;;;;;;;;;5033092;28;20339;-71
2024/01/16 01:25:49;;;;;;;9.05;1.10;;;;;;;;;;5033948;28;20044;-71
2024/01/16 01:28:15;;;;;;;8.13;1.00;;;26.30;1.00;;;;;;5016225;28;20042;-71
2024/01/16 01:30:41;;;;;;;5.30;0.90;;;;;;;;;;5033114;28;20131;-71
2024/01/16 01:33:07;;;;;;;7.13;1.38;;;;;;;;;;5032770;28;20044;-71
2024/01/16 01:35:33;;;;;;;8.00;1.60;;;;;;;;;;5032739;28;20037;-71
2024/01/16 01:37:59;;;;;;;6.75;1.55;;;;;;;;;;5032733;28;20033;-71
2024/01/16 01:40:25;;;;;;;7.50;1.67;;;;;;;;;;5032931;28;20084;-70
2024/01/16 01:42:51;;;;;;;7.82;1.48;;;;;;;;;;5016214;28;20045;-72
2024/01/16 01:45:17;;;;;;;6.35;2.40;;;;;;;;;;5032137;28;20034;-73
2024/01/16 01:47:43;;;;;;;11.30;1.88;;;;;;;;;;5032748;28;20132;-71
2024/01/16 01:50:10;;;;;;;7.57;1.70;;;;;;;;;;5032615;28;20109;-71
2024/01/16 01:52:38;;;;;;;8.73;1.70;;;26.60;1.00;;;;;;5032456;28;20136;-72
2024/01/16 01:55:05;;;;;;;7.55;1.17;;;;;;;;;;5031945;28;20072;-71
2024/01/16 01:57:33;;;;;;;9.98;1.40;;;26.80;1.00;;;;;;5032248;28;20569;-71
2024/01/16 01:59:59;;;;;;;6.53;1.27;;;26.50;1.00;;;;;;5016012;28;20049;-71
2024/01/16 02:02:25;;;;;;;9.45;1.48;;;26.30;1.00;;;;;;5034346;28;20058;-71
2024/01/16 02:04:51;;;;;;;7.03;1.98;;;26.50;1.00;;;;;;5031964;28;20098;-71
2024/01/16 02:07:17;;;;;;;3.58;1.02;;;26.50;1.00;;;;;;5016047;28;20041;-71
2024/01/16 02:09:44;;;;;;;9.98;1.50;;;;;;;;;;5032219;28;20092;-71
2024/01/16 02:12:10;;;;;;;7.90;1.55;;;;;;;;;;5032225;28;20041;-71
2024/01/16 02:14:35;;;;;;;7.63;1.40;;;26.30;1.00;;;;;;5015218;28;20049;-71
2024/01/16 02:17:01;;;;;;;7.53;1.80;;;26.70;1.00;;;;;;5015793;28;20095;-71
2024/01/16 02:19:27;;;;;;;5.05;1.13;;;;;;;;;;5032159;28;20128;-73
2024/01/16 02:21:55;;;;;;;5.18;1.50;;;;;;;;;;5031949;28;20048;-73
2024/01/16 02:24:21;;;;;;;7.65;1.20;;;;;;;;;;5031885;28;20107;-73
2024/01/16 02:26:47;;;;;;;6.55;1.75;;;;;;;;;;5031489;28;20037;-71
2024/01/16 02:29:13;;;;;;;8.85;1.33;;;;;;;;;;5032439;28;20091;-72
2024/01/16 02:31:39;;;;;;;6.88;1.60;;;;;;;;;;5031996;28;20405;-72
2024/01/16 02:34:05;;;;;;;11.25;1.13;;;;;;;;;;5033291;28;20037;-73
2024/01/16 02:36:31;;;;;;;4.30;1.20;;;;;;;;;;5031511;28;20045;-73
2024/01/16 02:38:57;;;;;;;8.57;1.50;;;;;;;;;;5031600;28;20049;-71
2024/01/16 02:41:24;;;;;;;6.97;1.30;;;;;;;;;;5031754;28;20045;-71
2024/01/16 02:43:50;;;;;;;6.57;1.08;;;;;;;;;;5015267;28;20037;-71
2024/01/16 02:46:16;;;;;;;5.78;1.27;;;;;;;;;;5031004;28;20048;-71
2024/01/16 02:48:44;;;;;;;7.05;1.30;;;;;;;;;;5031123;28;20064;-70
2024/01/16 02:51:10;;;;;;;6.80;1.73;;;26.40;1.00;;;;;;5031503;28;20124;-71
2024/01/16 02:53:37;;;;;;;5.65;1.33;;;;;;;;;;5031244;28;20119;-72
2024/01/16 02:56:03;;;;;;;6.85;1.55;;;;;;;;;;5030745;28;20103;-71
2024/01/16 02:58:29;;;;;;;5.32;1.60;;;26.60;1.00;;;;;;5031280;28;20045;-72
2024/01/16 03:00:55;;;;;;;4.47;1.10;;;26.60;1.00;;;;;;5030646;28;20501;-71
2024/01/16 03:03:21;;;;;;;9.73;1.48;;;;;;;;;;5031352;28;20048;-71
2024/01/16 03:05:47;;;;;;;7.45;1.80;;;26.40;1.00;;;;;;5030657;28;20037;-71
2024/01/16 03:08:13;;;;;;;3.75;1.52;;;;;;;;;;5014500;28;20124;-71
2024/01/16 03:10:39;;;;;;;6.07;1.17;;;;;;;;;;5030928;28;20125;-72
2024/01/16 03:13:05;;;;;;;7.78;1.25;;;;;;;;;;5015609;28;20513;-73
2024/01/16 03:15:31;;;;;;;4.80;1.00;;;;;;;;;;5013995;28;20038;-71
2024/01/16 03:17:58;;;;;;;5.90;1.05;;;26.70;1.00;;;;;;5030851;28;20498;-71
2024/01/16 03:20:24;;;;;;;7.68;1.55;;;;;;;;;;5014724;28;20049;-71
2024/01/16 03:22:50;;;;;;;6.57;1.17;;;;;;;;;;5031105;28;20076;-71
2024/01/16 03:25:19;;;;;;;7.28;1.38;;;;;;;;;;5030752;28;20072;-72
2024/01/16 03:27:45;;;;;;;8.10;1.83;;;;;;;;;;5030690;28;20038;-71
2024/01/16 03:30:11;;;;;;;6.45;1.40;;;26.60;1.00;;;;;;5030598;28;20044;-71
2024/01/16 03:32:37;;;;;;;1.85;0.73;;;26.50;1.00;;;;;;5030840;28;20431;-71
2024/01/16 03:35:04;;;;;;;11.45;2.53;;;;;;;;;;5030239;28;20049;-69
2024/01/16 03:37:30;;;;;;;5.53;0.98;;;;;;;;;;5030554;28;20052;-71
2024/01/16 03:39:56;;;;;;;9.30;0.95;;;26.60;1.00;;;;;;5030634;28;20505;-71
2024/01/16 03:42:22;;;;;;;9.05;1.65;;;;;;;;;;5030632;28;20155;-73
2024/01/16 03:44:49;;;;;;;6.05;2.47;;;;;;;;;;5030104;28;20583;-73
2024/01/16 03:47:15;;;;;;;7.45;1.10;;;26.60;1.00;;;;;;5013889;28;20041;-71
2024/01/16 03:49:41;;;;;;;5.35;0.90;;;;;;;;;;5030675;28;20144;-72
2024/01/16 03:52:07;;;;;;;8.55;1.50;;;;;;;;;;5030569;28;20041;-71
2024/01/16 03:54:33;;;;;;;6.90;1.75;;;;;;;;;;5031005;28;20046;-71
2024/01/16 03:56:59;;;;;;;5.57;1.50;;;;;;;;;;5031010;28;20044;-73
2024/01/16 03:59:25;;;;;;;3.13;0.82;;;;;;;;;;5031622;28;20594;-71
2024/01/16 04:01:52;;;;;;;7.13;0.90;;;;;;;;;;5031214;28;20068;-71
2024/01/16 04:04:17;;;;;;;7.47;1.17;;;26.70;1.00;;;;;;5014207;28;20472;-72
2024/01/16 04:06:43;;;;;;;7.50;1.40;;;;;;;;;;5030098;28;20124;-71
2024/01/16 04:09:10;;;;;;;8.27;2.08;;;;;;;;;;5030419;28;20095;-71
2024/01/16 04:11:36;;;;;;;4.63;1.10;;;26.80;1.00;;;;;;5030265;28;20092;-73
2024/01/16 04:14:02;;;;;;;4.88;1.20;;;;;;;;;;5033898;28;20041;-72
2024/01/16 04:16:28;;;;;;;6.03;1.38;;;26.70;1.00;;;;;;5034045;28;20045;-72
2024/01/16 04:18:54;;;;;;;7.80;1.17;;;;;;;;;;5034224;28;20049;-73
2024/01/16 04:21:20;;;;;;;8.20;1.23;;;;;;;;;;5034281;28;20048;-73
2024/01/16 04:23:47;;;;;;;10.38;1.42;;;;;;;;;;5034331;28;20440;-69
2024/01/16 04:26:13;;;;;;;4.45;1.00;;;26.60;1.00;;;;;;5017203;28;20509;-71
2024/01/16 04:28:39;;;;;;;5.10;1.08;;;;;;;;;;5034031;28;20037;-73
2024/01/16 04:31:05;;;;;;;6.97;2.20;;;;;;;;;;5034559;28;20117;-73
2024/01/16 04:33:31;;;;;;;14.00;2.10;;;;;;;;;;5034015;28;20041;-71
2024/01/16 04:35:57;;;;;;;7.70;1.40;;;;;;;;;;5033592;28;20052;-71
2024/01/16 04:38:23;;;;;;;5.53;1.65;;;;;;;;;;5034192;28;20493;-71
2024/01/16 04:40:49;;;;;;;8.27;1.00;;;;;;;;;;5017333;28;20099;-71
2024/01/16 04:43:15;;;;;;;6.88;1.73;;;;;;;;;;5033707;28;20042;-70
2024/01/16 04:45:41;;;;;;;10.07;2.08;;;;;;;;;;5033338;28;20497;-71
2024/01/16 04:48:10;;;;;;;7.95;1.40;;;;;;;;;;5017123;28;20045;-72
2024/01/16 04:50:36;;;;;;;9.60;1.35;;;26.60;1.00;;;;;;5017460;28;20428;-69
2024/01/16 04:53:02;;;;;;;4.93;1.20;;;;;;;;;;5033902;28;20083;-71
2024/01/16 04:55:29;;;;;;;3.13;1.85;;;26.50;1.00;;;;;;5033134;28;20045;-71
2024/01/16 04:57:55;;;;;;;9.60;1.33;;;;;;;;;;5033561;28;20045;-71
2024/01/16 05:00:21;;;;;;;7.82;1.50;;;;;;;;;;5033926;28;20053;-71
2024/01/16 05:02:47;;;;;;;11.27;1.38;;;;;;;;;;5033464;28;20041;-71
2024/01/16 05:05:13;;;;;;;5.30;1.20;;;26.50;1.00;;;;;;5033000;28;20045;-69
2024/01/16 05:07:39;;;;;;;6.85;1.23;;;;;;;;;;5017109;28;20041;-71
2024/01/16 05:10:06;;;;;;;6.32;1.30;;;26.50;1.00;;;;;;5033669;28;20506;-71
2024/01/16 05:12:33;;;;;;;8.38;1.42;;;;;;;;;;5033286;28;20041;-71
2024/01/16 05:14:59;;;;;;;9.75;1.45;;;;;;;;;;5032679;28;20579;-72
2024/01/16 05:17:25;;;;;;;10.82;1.60;;;;;;;;;;5033004;28;20107;-72
2024/01/16 05:19:51;;;;;;;5.10;1.33;;;;;;;;;;5016688;28;20052;-71
2024/01/16 05:22:17;;;;;;;6.90;1.58;;;;;;;;;;5016618;28;20042;-70
2024/01/16 05:24:43;;;;;;;12.35;1.85;;;;;;;;;;5015346;28;20044;-70
2024/01/16 05:27:09;;;;;;;8.90;1.30;;;25.70;1.00;;;;;;5033097;28;20073;-71
2024/01/16 05:29:37;;;;;;;8.38;1.55;;;25.80;1.00;;;;;;5033155;28;20092;-71
2024/01/16 05:32:03;;;;;;;6.68;1.33;;;;;;;;;;5032653;28;20106;-71
2024/01/16 05:34:29;;;;;;;9.95;1.55;;;;;;;;;;5033080;28;20045;-71
2024/01/16 05:36:56;;;;;;;4.38;1.23;;;;;;;;;;5032397;28;20174;-71
2024/01/16 05:39:22;;;;;;;8.52;1.40;;;;;;;;;;5032936;28;20045;-71
2024/01/16 05:41:48;;;;;;;7.38;1.73;;;;;;;;;;5032630;28;20045;-71
2024/01/16 05:44:13;;;;;;;9.45;1.63;;;;;;;;;;5032899;28;20432;-71
2024/01/16 05:46:40;;;;;;;9.20;1.77;;;;;;;;;;5015523;28;20045;-71
2024/01/16 05:49:06;;;;;;;11.43;1.70;;;;;;;;;;5032705;28;20051;-69
2024/01/16 05:51:31;;;;;;;9.63;1.75;;;25.50;1.00;;;;;;5032844;28;20124;-71
2024/01/16 05:53:57;;;;;;;8.95;1.73;;;;;;;;;;5032326;28;20045;-71
2024/01/16 05:56:23;;;;;;;5.82;1.35;;;;;;;;;;5031969;28;20045;-71
2024/01/16 05:58:49;;;;;;;10.25;2.08;;;;;;;;;;5033222;28;20572;-71
2024/01/16 06:01:15;;;;;;;10.40;1.50;;;;;;;;;;5033333;28;20052;-71
2024/01/16 06:03:43;;;;;;;7.32;1.50;;;;;;;;;;5033653;28;20041;-69
2024/01/16 06:06:09;;;;;;;8.15;1.65;;;;;;;;;;5032033;28;20464;-71
2024/01/16 06:08:35;;;;;;;9.75;0.93;;;;;;;;;;5032235;28;20120;-71
2024/01/16 06:11:01;;;;;;;8.73;0.93;;;;;;;;;;5032086;28;20087;-71
2024/01/16 06:13:28;;;;;;;9.73;1.95;;;;;;;;;;5032256;28;20045;-72
2024/01/16 06:15:54;;;;;;;9.13;1.20;;;;;;;;;;5015273;28;20096;-71
2024/01/16 06:18:20;;;;;;;8.15;1.52;;;;;;;;;;5032406;28;20041;-71
2024/01/16 06:20:46;;;;;;;4.15;1.23;;;;;;;;;;5015264;28;20041;-70
2024/01/16 06:23:12;;;;;;;10.27;2.05;;;;;;;;;;5031926;28;20041;-71
2024/01/16 06:25:38;;;;;;;5.90;1.08;;;;;;;;;;5031347;28;20048;-71
2024/01/16 06:28:05;;;;;;;5.85;1.45;;;;;;;;;;5031819;28;20041;-71
2024/01/16 06:30:31;;;;;;;5.40;1.15;;;24.90;1.00;;;;;;5015383;28;20034;-71
2024/01/16 06:32:56;;;;;;;10.48;1.73;;;;;;;;;;5015863;28;20041;-71
2024/01/16 06:35:23;;;;;;;6.00;1.75;;;;;;;;;;5030548;28;20145;-74
2024/01/16 06:37:49;;;;;;;11.93;1.50;;;25.00;1.00;;;;;;5033111;28;20103;-70
2024/01/16 06:40:15;;;;;;;3.00;0.88;;;;;;;;;;5016467;28;20513;-72
2024/01/16 06:42:41;;;;;;;9.30;1.63;;;;;;;;;;5031906;28;20041;-72
2024/01/16 06:45:07;;;;;;;5.50;1.13;;;;;;;;;;5014815;28;20541;-71
2024/01/16 06:47:33;;;;;;;9.23;1.98;;;;;;;;;;5032216;28;20486;-72
2024/01/16 06:49:59;;;;;;;6.05;1.58;;;;;;;;;;5031917;28;20038;-72
2024/01/16 06:52:25;;;;;;;6.35;1.08;;;;;;;;;;5015265;28;20045;-71
2024/01/16 06:54:51;;;;;;;6.60;1.30;;;;;;;;;;5014423;28;20084;-71
2024/01/16 06:57:17;;;;;;;2.72;0.95;;;;;;;;;;5014672;28;20041;-71
2024/01/16 06:59:43;;;;;;;9.82;1.15;;;;;;;;;;5031488;28;20053;-71
2024/01/16 07:02:09;;;;;;;8.32;1.45;;;;;;;;;;5030906;28;20037;-69
2024/01/16 07:04:35;;;;;;;13.32;1.63;;;;;;;;;;5027756;28;20505;-69
2024/01/16 07:07:02;;;;;;;7.22;1.58;;;;;;;;;;5030694;28;20033;-71
2024/01/16 07:09:28;;;;;;;12.05;1.35;;;;;;;;;;5030793;28;20041;-71
2024/01/16 07:11:54;;;;;;;7.00;1.20;;;;;;;;;;5030525;28;20041;-70
2024/01/16 07:14:20;;;;;;;2.45;0.82;;;;;;;;;;5031277;28;20049;-71
2024/01/16 07:16:47;;;;;;;8.93;1.67;;;;;;;;;;5027268;28;20583;-70
2024/01/16 07:19:13;;;;;;;6.53;2.97;;;;;;;;;;5025176;28;20068;-72
2024/01/16 07:21:39;;;;;;;6.30;1.25;;;;;;;;;;5026923;28;20045;-71
2024/01/16 07:24:05;;;;;;;6.85;1.65;;;;;;;;;;5010817;28;20543;-69
2024/01/16 07:26:32;;;;;;;8.05;0.80;;;;;;;;;;5026267;28;20073;-71
2024/01/16 07:28:58;;;;;;;1.55;1.00;;;;;;;;;;5026776;28;20073;-70
2024/01/16 07:31:26;;;;;;;6.97;1.40;;;24.40;1.00;;;;;;5026390;28;20420;-72
2024/01/16 07:33:52;;;;;;;4.22;1.00;;;;;;;;;;5026585;28;20067;-72
2024/01/16 07:36:18;;;;;;;5.53;1.55;;;;;;;;;;5020605;28;20049;-67
2024/01/16 07:38:44;;;;;;;7.10;1.23;;;;;;;;;;5023019;28;20060;-72
2024/01/16 07:41:10;;;;;;;12.95;1.92;;;;;;;;;;5019184;28;20045;-73
2024/01/16 07:43:36;;;;;;;6.85;1.27;;;;;;;;;;5023805;28;20052;-74
2024/01/16 07:46:04;;;;;;;9.80;2.17;;;;;;;;;;5001881;28;20041;-74
2024/01/16 07:48:30;;;;;;;5.32;1.38;;;;;;;;;;5020736;28;20041;-71
2024/01/16 07:50:56;;;;;;;6.72;1.40;;;;;;;;;;5026525;28;20067;-71
2024/01/16 07:53:22;;;;;;;7.90;1.58;;;;;;;;;;5023215;28;20042;-71
2024/01/16 07:55:49;;;;;;;4.50;1.30;;;;;;;;;;5025467;28;20041;-71
2024/01/16 07:58:15;;;;;;;6.35;1.45;;;;;;;;;;5025621;28;20045;-69
2024/01/16 08:00:41;;;;;;;8.68;2.85;;;;;;;;;;5026184;28;20048;-71
2024/01/16 08:03:08;;;;;;;4.43;2.05;;;;;;;;;;5025959;28;20037;-71
2024/01/16 08:05:34;;;;;;;3.80;0.70;;;;;;;;;;5025669;28;20044;-71
2024/01/16 08:08:00;;;;;;;5.40;1.67;;;;;;;;;;5024665;28;20037;-73
2024/01/16 08:10:26;;;;;;;5.95;1.42;;;;;;;;;;4998403;28;20061;-71
2024/01/16 08:12:52;;;;;;;9.90;1.15;;;;;;;;;;5026404;28;20577;-71
2024/01/16 08:15:18;;;;;;;3.80;1.40;;;;;;;;;;4999331;28;20045;-71
2024/01/16 08:17:44;;;;;;;9.18;1.83;;;;;;;;;;5026376;28;20045;-71
2024/01/16 08:20:10;;;;;;;4.82;1.10;;;;;;;;;;5024521;28;20033;-70
2024/01/16 08:22:37;;;;;;;5.30;1.55;;;;;;;;;;5025654;28;20033;-71
2024/01/16 08:25:04;;;;;;;5.82;0.95;;;;;;;;;;5025758;28;20584;-71
2024/01/16 08:27:30;;;;;;;8.82;1.20;;;;;;;;;;5026446;28;20616;-71
2024/01/16 08:29:56;;;;;;;5.85;1.10;;;16.90;1.00;;;;;;5025969;28;20045;-66
2024/01/16 08:32:22;;;;;;;9.48;1.80;;;;;;;;;;5020616;28;20056;-74
2024/01/16 08:34:48;;;;;;;5.43;1.20;;;;;;;;;;5036195;28;20405;-71
2024/01/16 08:37:14;;;;;;;3.35;0.90;;;;;;;;;;5046212;28;20041;-71
2024/01/16 08:39:40;;;;;;;4.97;1.20;;;;;;;;;;5049916;28;20382;-71
2024/01/16 08:42:06;;;;;;;7.93;1.48;;;;;;;;;;5049589;28;20048;-71
2024/01/16 08:44:32;;;;;;;3.75;0.80;;;;;;;;;;5049920;28;20515;-70
2024/01/16 08:46:59;;;;;;;5.53;1.17;;;;;;;;;;5031413;28;20175;-68
2024/01/16 08:49:25;;;;;;;4.53;1.10;;;;;;;;;;5032066;28;20037;-71
2024/01/16 08:51:51;;;;;;;1.85;1.30;;;;;;;;;;5048675;28;20052;-71
2024/01/16 08:54:17;;;;;;;12.75;1.17;;;;;;;;;;5032156;28;20037;-71
2024/01/16 08:56:43;;;;;;;6.18;1.33;;;;;;;;;;5031392;28;20040;-71
2024/01/16 08:59:10;;;;;;;11.60;1.30;;;;;;;;;;5050568;28;20044;-71
2024/01/16 09:01:35;;;;;;;4.95;0.90;;;16.70;5.20;;;;;;5052947;28;20049;-71
2024/01/16 09:04:01;;;;;;;5.38;0.88;;;;;;;;;;5054827;28;20386;-72
2024/01/16 09:06:27;;;;;;;5.72;1.48;;;;;;;;;;5052663;28;20052;-72
2024/01/16 09:08:53;;;;;;;6.38;0.98;;;;;;;;;;5053675;28;20106;-71
2024/01/16 09:11:19;;;;;;;4.78;1.35;;;;;;;;;;5038197;28;20041;-71
2024/01/16 09:13:45;;;;;;;9.02;1.70;;;16.90;7.40;;;;;;5054759;28;20099;-71
2024/01/16 09:16:11;;;;;;;9.40;1.00;;;;;;;;;;5052878;28;20047;-71
2024/01/16 09:18:36;;;;;;;6.65;1.20;;;16.70;5.90;;;;;;5053283;28;20047;-71
2024/01/16 09:21:02;;;;;;;4.32;1.02;;;;;;;;;;5036871;28;20052;-71
2024/01/16 09:23:28;;;;;;;4.70;1.00;;;;;;;;;;5053193;28;20127;-71
2024/01/16 09:25:54;;;;;;;8.57;1.13;;;;;;;;;;5052756;28;20068;-71
2024/01/16 09:28:20;;;;;;;4.05;0.70;;;;;;;;;;5052913;28;20500;-73
2024/01/16 09:30:46;;;;;;;3.00;0.70;;;;;;;;;;5053166;28;20045;-72
2024/01/16 09:33:13;;;;;;;2.47;0.77;;;;;;;;;;5054221;28;20040;-71
2024/01/16 09:35:39;;;;;;;5.15;1.45;;;;;;;;;;5052185;28;20056;-71
2024/01/16 09:38:05;;;;;;;4.22;1.02;;;;;;;;;;5052959;28;20435;-71
2024/01/16 09:40:31;;;;;;;3.42;1.15;;;;;;;;;;5052778;28;20124;-72
2024/01/16 09:42:57;;;;;;;7.32;2.25;;;;;;;;;;5052822;28;20041;-72
2024/01/16 09:45:25;;;;;;;3.38;1.40;;;;;;;;;;5052346;28;20033;-71
2024/01/16 09:47:52;;;;;;;4.75;0.90;;;17.10;2.90;;;;;;5036431;28;20440;-71
2024/01/16 09:50:18;;;;;;;8.45;0.90;;;17.00;3.00;;;;;;5052434;28;20037;-72
2024/01/16 09:52:47;;;;;;;5.85;1.00;;;17.20;2.70;;;;;;5052737;28;20080;-70
2024/01/16 09:55:13;;;;;;;5.50;1.02;;;17.10;4.20;;;;;;5053240;28;20045;-71
2024/01/16 09:57:40;;;;;;;3.75;1.02;;;;;;;;;;5052391;28;20040;-72
2024/01/16 10:00:12;;;;;;;3.72;1.10;;;;;;;;;;5035800;28;20045;-73
2024/01/16 10:02:40;;;;;;;6.00;0.93;;;17.10;1.00;;;;;;5052294;28;20048;-71
2024/01/16 10:05:08;;;;;;;4.70;1.00;;;;;;;;;;5051838;28;20342;-72
2024/01/16 10:07:34;;;;;;;2.65;1.02;;;;;;;;;;5052376;28;20131;-71
2024/01/16 10:10:00;;;;;;;3.78;1.02;;;;;;;;;;5034358;28;20040;-71
2024/01/16 10:12:26;;;;;;;5.05;1.20;;;17.00;2.00;;;;;;5052425;28;20048;-72
2024/01/16 10:14:52;;;;;;;5.25;1.20;;;17.10;2.20;;;;;;5051630;28;20040;-72
2024/01/16 10:17:19;;;;;;;2.30;1.10;;;;;;;;;;5052278;28;20409;-70
2024/01/16 10:19:50;;;;;;;5.88;1.73;;;16.90;1.00;;;;;;5052418;28;20459;-72
2024/01/16 10:22:24;;;;;;;8.20;1.60;;;;;;;;;;5035313;28;20074;-71
2024/01/16 10:24:51;;;;;;;7.63;2.35;;;;;;;;;;5051737;28;20405;-69
2024/01/16 10:27:17;;;;;;;11.48;2.25;;;;;;;;;;5051735;28;20044;-72
2024/01/16 10:29:59;;;;;;;10.30;2.33;;;17.50;2.80;;;;;;5051975;28;20048;-72
2024/01/16 10:32:35;;;;;;;7.57;1.95;;;;;;;;;;5052581;28;20041;-71
2024/01/16 10:35:11;;;;;;;5.53;1.98;;;17.20;3.10;;;;;;5051239;28;20041;-71
2024/01/16 10:37:43;;;;;;;5.88;1.65;;;17.00;2.90;;;;;;5034883;28;20037;-71
2024/01/16 10:40:09;;;;;;;2.90;2.03;;;;;;;;;;5034964;28;20048;-71
2024/01/16 10:42:35;;;;;;;4.03;1.67;;;;;;;;;;5052965;28;20045;-71
2024/01/16 10:45:00;;;;;;;4.30;1.60;;;17.10;8.00;;;;;;5050991;28;20040;-71
2024/01/16 10:47:27;;;;;;;7.53;1.52;;;;;;;;;;5051310;28;20043;-72
2024/01/16 10:49:53;;;;;;;3.42;1.40;;;;;;;;;;5051354;28;20048;-71
2024/01/16 10:52:24;;;;;;;3.80;1.60;;;17.30;8.50;;;;;;5051891;28;20095;-69
2024/01/16 10:54:50;;;;;;;4.57;1.70;;;17.00;13.70;;;;;;5050742;28;20074;-71
2024/01/16 10:57:17;;;;;;;6.20;1.88;;;;;;;;;;5051317;28;20051;-71
2024/01/16 10:59:56;;;;;;;2.72;1.85;;;;;;;;;;5035127;28;20095;-72
2024/01/16 11:02:26;;;;;;;4.65;1.77;;;16.80;15.20;;;;;;5052682;28;20063;-73
2024/01/16 11:04:54;;;;;;;4.10;2.03;;;17.00;15.00;;;;;;5050811;28;20045;-71
2024/01/16 11:07:22;;;;;;;4.38;2.33;;;;;;;;;;5051112;28;20412;-71
2024/01/16 11:09:49;;;;;;;6.05;2.47;;;;;;;;;;5034549;28;20037;-71
2024/01/16 11:12:17;;;;;;;4.75;2.00;;;;;;;;;;5051269;28;20045;-71
2024/01/16 11:14:45;;;;;;;3.22;1.75;;;;;;;;;;5050854;28;20049;-71
2024/01/16 11:17:17;;;;;;;4.05;2.25;;;;;;;;;;5050863;28;20048;-71
2024/01/16 11:19:43;;;;;;;4.10;1.60;;;;;;;;;;5051352;28;20059;-70
2024/01/16 11:22:10;;;;;;;5.25;2.03;;;;;;;;;;5050676;28;20050;-71
2024/01/16 11:24:36;;;;;;;2.05;1.65;;;;;;;;;;5051265;28;20083;-71
2024/01/16 11:27:02;;;;;;;4.05;1.70;;;;;;;;;;5052131;28;20040;-73
2024/01/16 11:29:28;;;;;;;6.43;1.90;;;;;;;;;;5052392;28;20037;-72
2024/01/16 11:31:55;;;;;;;4.30;1.88;;;;;;;;;;5051628;28;20472;-72
2024/01/16 11:34:42;;;;;;;5.18;2.13;;;17.60;11.10;;;;;;5052261;28;20098;-71
2024/01/16 11:37:08;;;;;;;3.28;1.58;;;;;;;;;;5051905;28;20135;-71
2024/01/16 11:39:35;;;;;;;5.25;1.98;;;;;;;;;;5032231;28;20079;-73
2024/01/16 11:42:04;;;;;;;10.13;2.38;;;;;;;;;;5015178;28;20049;-71
2024/01/16 11:44:37;;;;;;;4.18;2.00;;;;;;;;;;5014874;28;20041;-70
2024/01/16 11:47:04;;;;;;;5.68;1.80;;;;;;;;;;5030623;28;20048;-73
2024/01/16 11:49:32;;;;;;;6.32;2.20;;;;;;;;;;5025333;28;20045;-73
2024/01/16 11:51:59;;;;;;;8.50;1.65;;;;;;;;;;5026067;28;20045;-71
2024/01/16 11:54:25;;;;;;;4.85;1.85;;;;;;;;;;5007847;28;20049;-73
2024/01/16 11:56:54;;;;;;;6.07;1.73;;;;;;;;;;5025514;28;20071;-71
2024/01/16 11:59:47;;;;;;;4.72;1.42;;;17.50;3.10;;;;;;5026807;28;20045;-70
2024/01/16 12:02:16;;;;;;;7.43;1.80;;;;;;;;;;5009807;28;20509;-71
2024/01/16 12:04:42;;;;;;;6.22;2.33;;;;;;;;;;5026169;28;20622;-70
2024/01/16 12:07:08;;;;;;;6.22;2.15;;;;;;;;;;5027047;28;20112;-70
2024/01/16 12:09:34;;;;;;;6.63;1.85;;;;;;;;;;5028020;28;20060;-70
2024/01/16 12:12:01;;;;;;;10.60;2.88;;;;;;;;;;5033539;28;20409;-71
2024/01/16 12:14:27;;;;;;;14.48;3.33;;;;;;;;;;5028431;28;20124;-68
2024/01/16 12:16:53;;;;;;;6.70;2.72;;;;;;;;;;5027113;28;20048;-68
2024/01/16 12:19:19;;;;;;;10.15;3.33;;;;;;;;;;5029428;28;20048;-70
2024/01/16 12:21:46;;;;;;;15.18;3.83;;;;;;;;;;5030931;28;20030;-71
2024/01/16 12:24:13;;;;;;;6.22;3.83;;;;;;;;;;5029039;28;20038;-69
2024/01/16 12:26:39;;;;;;;9.77;3.88;;;17.80;1.00;;;;;;5029232;28;20045;-72
2024/01/16 12:29:05;;;;;;;13.55;3.80;;;17.80;1.00;;;;;;5030110;28;20029;-71
2024/01/16 12:31:31;;;;;;;12.95;3.50;;;;;;;;;;5013207;28;20525;-70
2024/01/16 12:34:07;;;;;;;10.88;3.80;;;18.00;1.00;;;;;;5031919;28;20063;-69
2024/01/16 12:36:34;;;;;;;9.00;3.13;;;;;;;;;;5033296;28;20068;-70
2024/01/16 12:39:00;;;;;;;8.07;3.40;;;;;;;;;;5013388;28;20413;-71
2024/01/16 12:41:34;;;;;;;9.60;3.63;;;17.80;1.00;;;;;;5033923;28;20048;-70
2024/01/16 12:44:00;;;;;;;6.63;3.13;;;18.00;1.00;;;;;;5034542;28;20037;-71
2024/01/16 12:46:26;;;;;;;7.00;3.30;;;18.00;1.00;;;;;;5033921;28;20037;-70
2024/01/16 12:48:54;;;;;;;8.60;3.10;;;;;;;;;;5033727;28;20038;-70
2024/01/16 12:51:24;;;;;;;7.93;3.67;;;18.30;1.00;;;;;;5033895;28;20050;-68
2024/01/16 12:53:50;;;;;;;8.00;3.25;;;;;;;;;;5031776;28;20051;-72
2024/01/16 12:56:23;;;;;;;7.00;2.85;;;;;;;;;;5033686;28;20037;-71
2024/01/16 12:58:49;;;;;;;10.63;3.47;;;18.10;1.00;;;;;;5039641;28;20041;-69
2024/01/16 13:01:29;;;;;;;11.52;3.63;;;18.20;1.00;;;;;;5034998;28;20125;-71
2024/01/16 13:03:55;;;;;;;11.07;3.40;;;18.00;1.00;;;;;;5033075;28;20045;-70
2024/01/16 13:06:22;;;;;;;11.23;3.40;;;;;;;;;;5032321;28;20192;-70
2024/01/16 13:08:48;;;;;;;8.77;2.95;;;;;;;;;;5033509;28;20124;-69
2024/01/16 13:11:21;;;;;;;9.25;3.08;;;;;;;;;;5033014;28;20126;-70
2024/01/16 13:13:51;;;;;;;8.50;3.30;;;18.30;1.00;;;;;;5033475;28;20550;-70
2024/01/16 13:16:17;;;;;;;9.00;2.78;;;;;;;;;;5032342;28;20038;-70
2024/01/16 13:18:43;;;;;;;9.75;2.50;;;;;;;;;;5032902;28;20045;-72
2024/01/16 13:21:09;;;;;;;13.80;2.85;;;;;;;;;;5032451;28;20037;-72
2024/01/16 13:23:35;;;;;;;7.47;4.05;;;;;;;;;;5033044;28;20045;-73
2024/01/16 13:26:04;;;;;;;8.88;2.50;;;;;;;;;;5032765;28;20052;-69
2024/01/16 13:28:30;;;;;;;6.18;2.17;;;18.30;1.00;;;;;;5032979;28;20045;-69
2024/01/16 13:30:56;;;;;;;9.02;2.70;;;;;;;;;;5032523;28;20045;-73
2024/01/16 13:33:26;;;;;;;7.55;2.70;;;;;;;;;;5033063;28;20045;-73
2024/01/16 13:35:52;;;;;;;9.15;2.80;;;18.10;1.00;;;;;;5032757;28;20052;-70
2024/01/16 13:38:19;;;;;;;6.05;2.30;;;;;;;;;;5032754;28;20088;-71
2024/01/16 13:40:45;;;;;;;9.40;2.63;;;18.20;1.00;;;;;;5032857;28;20057;-71
2024/01/16 13:43:11;;;;;;;8.38;3.00;;;18.00;1.00;;;;;;5032768;28;20053;-70
2024/01/16 13:45:38;;;;;;;5.18;2.17;;;17.90;1.00;;;;;;5031891;28;20044;-70
2024/01/16 13:48:04;;;;;;;10.90;1.95;;;;;;;;;;5032629;28;20048;-71
2024/01/16 13:50:31;;;;;;;5.55;2.58;;;18.10;1.00;;;;;;5032942;28;20459;-70
2024/01/16 13:52:57;;;;;;;7.22;2.55;;;18.10;1.00;;;;;;5032626;28;20045;-70
2024/01/16 13:55:23;;;;;;;9.63;3.03;;;;;;;;;;5016459;28;20568;-71
2024/01/16 13:57:49;;;;;;;5.93;1.80;;;18.20;1.00;;;;;;5032557;28;20132;-71
2024/01/16 14:00:16;;;;;;;9.30;2.25;;;;;;;;;;5016106;28;20076;-71
2024/01/16 14:02:43;;;;;;;7.75;1.88;;;;;;;;;;5032359;28;20049;-68
2024/01/16 14:05:15;;;;;;;4.63;1.95;;;18.40;1.00;;;;;;5031721;28;20033;-70
2024/01/16 14:07:41;;;;;;;4.78;2.10;;;18.30;1.00;;;;;;5032189;28;20087;-70
2024/01/16 14:10:12;;;;;;;6.85;1.88;;;;;;;;;;5016228;28;20443;-70